createdAt,value
2023-05-18T00:03:38.978Z,8.42
2023-05-18T00:08:40.973Z,8.41
2023-05-18T00:13:42.832Z,8.41
2023-05-18T00:18:45.171Z,8.41
2023-05-18T00:23:49.589Z,8.40
2023-05-18T00:28:51.295Z,8.38
2023-05-18T00:33:53.047Z,8.36
2023-05-18T00:38:54.900Z,8.31
2023-05-18T00:43:57.685Z,8.33
2023-05-18T00:49:01.816Z,8.30
2023-05-18T00:54:04.560Z,8.29
2023-05-18T00:59:06.395Z,8.32
2023-05-18T01:04:10.090Z,8.32
2023-05-18T01:09:13.538Z,8.31
2023-05-18T01:14:31.862Z,8.32
2023-05-18T01:19:52.017Z,8.33
2023-05-18T01:24:59.858Z,8.33
2023-05-18T01:30:02.563Z,8.30
2023-05-18T01:35:04.886Z,8.30
2023-05-18T01:40:09.335Z,8.29
2023-05-18T01:45:21.411Z,8.26
2023-05-18T01:50:37.688Z,8.27
2023-05-18T01:55:41.244Z,8.28
2023-05-18T02:00:44.028Z,8.26
2023-05-18T02:05:45.913Z,8.23
2023-05-18T02:10:47.660Z,8.24
2023-05-18T02:15:49.765Z,8.22
2023-05-18T02:20:51.576Z,8.20
2023-05-18T02:25:56.733Z,8.21
2023-05-18T02:31:06.994Z,8.22
2023-05-18T02:36:13.586Z,8.22
2023-05-18T02:41:16.599Z,8.19
2023-05-18T02:46:18.355Z,8.17
2023-05-18T02:51:21.718Z,8.15
2023-05-18T02:56:24.728Z,8.11
2023-05-18T03:01:37.234Z,8.06
2023-05-18T03:06:40.201Z,8.00
2023-05-18T03:11:42.070Z,7.97
2023-05-18T03:16:44.377Z,7.92
2023-05-18T03:21:49.497Z,7.93
2023-05-18T03:26:54.472Z,7.96
2023-05-18T03:31:56.565Z,7.97
2023-05-18T03:36:58.601Z,7.98
2023-05-18T03:42:00.881Z,7.95
2023-05-18T03:47:04.240Z,7.93
2023-05-18T03:52:07.598Z,7.91
2023-05-18T03:57:09.360Z,7.90
2023-05-18T04:02:12.190Z,7.87
2023-05-18T04:07:17.693Z,7.84
2023-05-18T04:12:19.534Z,7.85
2023-05-18T04:17:24.531Z,7.87
2023-05-18T04:22:31.196Z,7.87
2023-05-18T04:27:33.270Z,7.89
2023-05-18T04:32:36.998Z,7.91
2023-05-18T04:37:42.885Z,7.97
2023-05-18T04:42:48.954Z,8.06
2023-05-18T04:48:02.116Z,8.17
2023-05-18T04:53:07.722Z,8.28
2023-05-18T04:58:10.389Z,8.36
2023-05-18T05:03:12.325Z,8.41
2023-05-18T05:08:14.165Z,8.46
2023-05-18T05:13:16.089Z,8.47
2023-05-18T05:18:18.016Z,8.55
2023-05-18T05:23:19.761Z,8.64
2023-05-18T05:28:21.708Z,8.73
2023-05-18T05:33:23.474Z,8.77
2023-05-18T05:38:27.648Z,8.83
2023-05-18T05:43:30.620Z,8.92
2023-05-18T05:48:32.491Z,8.98
2023-05-18T05:53:34.276Z,9.07
2023-05-18T05:58:36.182Z,9.17
2023-05-18T06:03:38.830Z,9.25
2023-05-18T06:08:45.559Z,9.36
2023-05-18T06:13:48.516Z,9.50
2023-05-18T06:18:51.768Z,9.66
2023-05-18T06:23:56.762Z,9.85
2023-05-18T06:29:16.566Z,10.12
2023-05-18T06:34:45.962Z,10.44
2023-05-18T06:39:50.905Z,10.52
2023-05-18T06:44:58.041Z,10.67
2023-05-18T06:50:20.749Z,10.82
2023-05-18T06:55:23.758Z,10.82
2023-05-18T07:00:32.296Z,10.92
2023-05-18T07:05:35.714Z,11.20
2023-05-18T07:10:38.716Z,11.35
2023-05-18T07:15:40.469Z,11.36
2023-05-18T07:20:42.283Z,11.55
2023-05-18T07:25:43.950Z,11.70
2023-05-18T07:30:45.660Z,11.80
2023-05-18T07:35:47.421Z,11.87
2023-05-18T07:40:49.154Z,12.11
2023-05-18T07:45:50.837Z,12.25
2023-05-18T07:50:52.913Z,12.22
2023-05-18T07:55:54.728Z,12.29
2023-05-18T08:00:56.447Z,12.36
2023-05-18T08:05:58.234Z,12.52
2023-05-18T08:10:59.934Z,12.55
2023-05-18T08:16:11.215Z,12.86
2023-05-18T08:21:13.705Z,13.04
2023-05-18T08:26:15.402Z,13.22
2023-05-18T08:31:17.186Z,13.23
2023-05-18T08:36:18.978Z,13.22
2023-05-18T08:41:26.564Z,13.29
2023-05-18T08:46:42.665Z,13.28
2023-05-18T08:51:50.459Z,13.25
2023-05-18T08:56:53.500Z,13.50
2023-05-18T09:01:55.528Z,13.71
2023-05-18T09:07:00.126Z,13.85
2023-05-18T09:12:01.933Z,13.87
2023-05-18T09:17:04.049Z,14.04
2023-05-18T09:22:06.555Z,14.15
2023-05-18T09:27:08.279Z,13.87
2023-05-18T09:32:10.998Z,13.75
2023-05-18T09:37:16.814Z,13.74
2023-05-18T09:42:18.614Z,13.77
2023-05-18T09:47:20.426Z,13.69
2023-05-18T09:52:22.185Z,13.74
2023-05-18T09:57:24.056Z,13.81
2023-05-18T10:02:25.928Z,13.81
2023-05-18T10:07:27.777Z,13.68
2023-05-18T10:12:30.816Z,13.46
2023-05-18T10:17:33.856Z,13.35
2023-05-18T10:22:37.258Z,13.34
2023-05-18T10:27:39.658Z,13.40
2023-05-18T10:32:43.598Z,13.33
2023-05-18T10:37:50.330Z,13.27
2023-05-18T10:42:56.539Z,13.27
2023-05-18T10:48:00.596Z,13.24
2023-05-18T10:53:03.418Z,13.01
2023-05-18T10:58:14.306Z,13.01
2023-05-18T11:03:18.141Z,12.92
2023-05-18T11:08:27.028Z,12.71
2023-05-18T11:13:31.213Z,12.92
2023-05-18T11:18:36.357Z,13.05
2023-05-18T11:23:38.478Z,13.24
2023-05-18T11:28:43.490Z,13.28
2023-05-18T11:33:45.418Z,13.27
2023-05-18T11:38:53.029Z,13.17
2023-05-18T11:44:14.882Z,13.25
2023-05-18T11:49:18.236Z,13.25
2023-05-18T11:54:20.466Z,13.05
2023-05-18T11:59:37.807Z,12.91
2023-05-18T12:04:48.051Z,12.78
2023-05-18T12:09:50.001Z,12.64
2023-05-18T12:14:57.484Z,12.45
2023-05-18T12:19:59.355Z,12.34
2023-05-18T12:25:01.026Z,12.20
2023-05-18T12:30:02.976Z,12.15
2023-05-18T12:35:06.362Z,12.02
2023-05-18T12:40:08.319Z,12.06
2023-05-18T12:45:11.391Z,12.26
2023-05-18T12:50:13.277Z,12.27
2023-05-18T12:55:21.891Z,12.32
2023-05-18T13:00:23.826Z,12.37
2023-05-18T13:05:25.696Z,12.45
2023-05-18T13:10:31.150Z,12.56
2023-05-18T13:15:35.867Z,12.53
2023-05-18T13:20:50.941Z,12.36
2023-05-18T13:25:52.782Z,12.33
2023-05-18T13:30:54.586Z,12.37
2023-05-18T13:35:56.338Z,12.41
2023-05-18T13:40:58.049Z,12.53
2023-05-18T13:45:59.925Z,12.66
2023-05-18T13:51:01.766Z,12.74
2023-05-18T13:56:03.847Z,12.75
2023-05-18T14:01:09.097Z,12.78
2023-05-18T14:06:28.152Z,12.81
2023-05-18T14:11:29.936Z,12.87
2023-05-18T14:16:31.888Z,12.75
2023-05-18T14:21:33.770Z,12.63
2023-05-18T14:26:36.555Z,12.54
2023-05-18T14:31:38.409Z,12.56
2023-05-18T14:36:40.282Z,12.59
2023-05-18T14:41:41.989Z,12.49
2023-05-18T14:46:43.760Z,12.44
2023-05-18T14:51:45.469Z,12.45
2023-05-18T14:56:47.369Z,12.40
2023-05-18T15:01:49.105Z,12.35
2023-05-18T15:06:51.042Z,12.17
2023-05-18T15:11:52.723Z,11.89
2023-05-18T15:16:54.422Z,11.74
2023-05-18T15:21:56.215Z,11.50
2023-05-18T15:26:57.955Z,11.32
2023-05-18T15:31:59.832Z,11.18
2023-05-18T15:37:01.660Z,11.05
2023-05-18T15:42:04.943Z,10.90
2023-05-18T15:47:07.049Z,10.83
2023-05-18T15:52:08.890Z,10.71
2023-05-18T15:57:10.888Z,10.55
2023-05-18T16:02:12.747Z,10.31
2023-05-18T16:07:15.432Z,10.25
2023-05-18T16:13:48.119Z,10.28
2023-05-18T16:24:44.379Z,9.94
2023-05-18T16:29:46.145Z,9.83
2023-05-18T16:34:47.903Z,9.75
2023-05-18T16:39:49.809Z,9.64
2023-05-18T16:44:51.980Z,9.53
2023-05-18T16:49:53.697Z,9.46
2023-05-18T16:54:55.442Z,9.46
2023-05-18T16:59:57.197Z,9.40
2023-05-18T17:04:59.021Z,9.25
2023-05-18T17:10:05.564Z,9.09
2023-05-18T17:15:08.617Z,9.00
2023-05-18T17:20:11.567Z,8.99
2023-05-18T17:25:13.380Z,8.98
2023-05-18T17:30:15.255Z,9.00
2023-05-18T17:35:17.523Z,9.00
2023-05-18T17:40:19.237Z,9.00
2023-05-18T17:45:21.528Z,8.98
2023-05-18T17:50:23.260Z,8.96
2023-05-18T17:55:25.036Z,8.92
2023-05-18T18:00:26.889Z,8.89
2023-05-18T18:05:28.735Z,8.89
2023-05-18T18:10:32.093Z,8.87
2023-05-18T18:15:34.157Z,8.80
2023-05-18T18:20:36.819Z,8.76
2023-05-18T18:25:38.883Z,8.74
2023-05-18T18:30:44.105Z,8.73
2023-05-18T18:35:46.265Z,8.74
2023-05-18T18:40:48.404Z,8.75
2023-05-18T18:45:50.148Z,8.73
2023-05-18T18:50:52.708Z,8.75
2023-05-18T18:55:54.870Z,8.79
2023-05-18T19:00:56.760Z,8.86
2023-05-18T19:05:58.805Z,8.84
2023-05-18T19:11:00.726Z,8.77
2023-05-18T19:16:02.629Z,8.69
2023-05-18T19:21:04.341Z,8.62
2023-05-18T19:26:06.253Z,8.57
2023-05-18T19:31:10.397Z,8.55
2023-05-18T19:36:13.780Z,8.46
2023-05-18T19:41:15.496Z,8.52
2023-05-18T19:46:19.101Z,8.51
2023-05-18T19:51:20.907Z,8.50
2023-05-18T19:56:22.682Z,8.52
2023-05-18T20:01:24.943Z,8.54
2023-05-18T20:06:31.874Z,8.56
2023-05-18T20:11:41.105Z,8.53
2023-05-18T20:16:43.440Z,8.47
2023-05-18T20:21:48.540Z,8.45
2023-05-18T20:26:50.918Z,8.48
2023-05-18T20:31:54.681Z,8.53
2023-05-18T20:36:56.751Z,8.55
2023-05-18T20:41:59.528Z,8.53
2023-05-18T20:47:01.621Z,8.49
2023-05-18T20:52:03.521Z,8.49
2023-05-18T20:57:05.416Z,8.51
2023-05-18T21:02:07.633Z,8.58
2023-05-18T21:07:10.103Z,8.62
2023-05-18T21:12:12.482Z,8.70
2023-05-18T21:17:15.972Z,8.72
2023-05-18T21:22:17.737Z,8.73
2023-05-18T21:27:19.467Z,8.75
2023-05-18T21:32:21.285Z,8.76
2023-05-18T21:37:23.177Z,8.76
2023-05-18T21:42:25.919Z,8.77
2023-05-18T21:47:29.477Z,8.80
2023-05-18T21:52:33.238Z,8.79
2023-05-18T21:57:35.492Z,8.83
2023-05-18T22:02:37.241Z,8.87
2023-05-18T22:07:39.096Z,8.83
2023-05-18T22:12:43.312Z,8.79
2023-05-18T22:17:46.175Z,8.79
2023-05-18T22:22:48.036Z,8.77
2023-05-18T22:27:49.735Z,8.75
2023-05-18T22:32:52.013Z,8.74
2023-05-18T22:37:53.817Z,8.70
2023-05-18T22:42:55.818Z,8.70
2023-05-18T22:48:02.237Z,8.71
2023-05-18T22:53:04.392Z,8.70
2023-05-18T22:58:06.348Z,8.68
2023-05-18T23:03:08.237Z,8.69
2023-05-18T23:08:10.265Z,8.69
2023-05-18T23:13:16.080Z,8.70
2023-05-18T23:18:18.166Z,8.66
2023-05-18T23:23:20.471Z,8.66
2023-05-18T23:28:22.270Z,8.65
2023-05-18T23:33:25.498Z,8.62
2023-05-18T23:38:34.941Z,8.59
2023-05-18T23:43:38.308Z,8.55
2023-05-18T23:48:41.540Z,8.56
2023-05-18T23:53:47.577Z,8.56
2023-05-18T23:58:49.693Z,8.54
